createdAt,value
2023-02-21T00:00:34.280Z,85.43
2023-02-21T00:03:38.749Z,84.96
2023-02-21T00:06:26.821Z,84.30
2023-02-21T00:09:12.296Z,83.89
2023-02-21T00:12:01.882Z,83.53
2023-02-21T00:14:47.486Z,82.97
2023-02-21T00:17:33.331Z,82.44
2023-02-21T00:20:18.802Z,82.39
2023-02-21T00:23:04.419Z,82.38
2023-02-21T00:25:50.427Z,82.53
2023-02-21T00:28:35.955Z,82.23
2023-02-21T00:31:23.696Z,82.74
2023-02-21T00:34:09.919Z,82.71
2023-02-21T00:36:55.237Z,82.46
2023-02-21T00:39:40.810Z,82.38
2023-02-21T00:42:26.375Z,81.49
2023-02-21T00:45:11.629Z,81.14
2023-02-21T00:47:57.126Z,80.69
2023-02-21T00:50:42.371Z,79.89
2023-02-21T00:53:27.707Z,79.96
2023-02-21T00:56:12.825Z,80.03
2023-02-21T00:58:57.925Z,80.25
2023-02-21T01:01:43.452Z,80.19
2023-02-21T01:04:28.776Z,80.29
2023-02-21T01:07:14.311Z,80.42
2023-02-21T01:10:01.412Z,80.01
2023-02-21T01:12:47.144Z,79.51
2023-02-21T01:15:34.385Z,79.22
2023-02-21T01:18:19.511Z,78.85
2023-02-21T01:21:05.321Z,78.75
2023-02-21T01:23:52.559Z,78.70
2023-02-21T01:26:38.080Z,78.67
2023-02-21T01:29:23.292Z,78.53
2023-02-21T01:32:09.412Z,78.58
2023-02-21T01:34:56.990Z,78.57
2023-02-21T01:37:42.974Z,78.82
2023-02-21T01:40:33.509Z,78.87
2023-02-21T01:43:19.394Z,78.54
2023-02-21T01:46:11.683Z,78.19
2023-02-21T01:48:57.580Z,78.31
2023-02-21T01:51:56.102Z,78.34
2023-02-21T01:54:46.224Z,78.40
2023-02-21T01:57:32.694Z,77.96
2023-02-21T02:00:23.026Z,77.29
2023-02-21T02:03:16.369Z,77.13
2023-02-21T02:06:07.198Z,77.24
2023-02-21T02:08:53.594Z,77.19
2023-02-21T02:12:13.132Z,76.96
2023-02-21T02:15:07.658Z,76.87
2023-02-21T02:17:56.627Z,76.73
2023-02-21T02:21:07.922Z,76.59
2023-02-21T02:23:53.475Z,76.27
2023-02-21T02:26:58.404Z,76.26
2023-02-21T02:29:50.711Z,76.00
2023-02-21T02:32:39.344Z,76.17
2023-02-21T02:35:10.864Z,75.95
2023-02-21T02:38:02.919Z,76.00
2023-02-21T02:40:42.086Z,76.33
2023-02-21T02:43:18.126Z,76.27
2023-02-21T02:45:51.395Z,76.14
2023-02-21T02:48:26.337Z,75.84
2023-02-21T02:50:55.483Z,75.33
2023-02-21T02:53:27.292Z,75.21
2023-02-21T02:56:06.825Z,75.30
2023-02-21T02:58:40.114Z,75.20
2023-02-21T03:01:36.912Z,75.31
2023-02-21T03:04:10.789Z,75.16
2023-02-21T03:06:43.576Z,75.02
2023-02-21T03:09:30.763Z,74.99
2023-02-21T03:12:36.023Z,74.51
2023-02-21T03:15:07.040Z,74.21
2023-02-21T03:17:39.854Z,74.05
2023-02-21T03:20:09.330Z,74.24
2023-02-21T03:22:37.112Z,74.35
2023-02-21T03:25:04.583Z,74.49
2023-02-21T03:27:33.398Z,74.59
2023-02-21T03:30:09.560Z,74.28
2023-02-21T03:32:48.392Z,73.59
2023-02-21T03:35:15.926Z,73.38
2023-02-21T03:37:45.622Z,73.38
2023-02-21T03:40:23.415Z,73.33
2023-02-21T03:42:52.431Z,73.25
2023-02-21T03:45:19.631Z,72.72
2023-02-21T03:47:57.543Z,72.62
2023-02-21T03:50:24.465Z,72.28
2023-02-21T03:52:51.206Z,72.58
2023-02-21T03:55:20.106Z,72.67
2023-02-21T03:57:46.723Z,72.60
2023-02-21T04:00:14.345Z,72.40
2023-02-21T04:02:44.285Z,72.16
2023-02-21T04:05:20.259Z,72.13
2023-02-21T04:07:48.023Z,71.77
2023-02-21T04:10:15.632Z,71.23
2023-02-21T04:12:44.700Z,71.26
2023-02-21T04:15:11.744Z,71.24
2023-02-21T04:17:38.267Z,71.25
2023-02-21T04:20:06.522Z,70.83
2023-02-21T04:22:37.030Z,70.90
2023-02-21T04:25:03.954Z,70.38
2023-02-21T04:27:36.581Z,70.43
2023-02-21T04:30:03.586Z,70.43
2023-02-21T04:32:30.611Z,70.00
2023-02-21T04:34:58.195Z,69.75
2023-02-21T04:37:25.247Z,69.80
2023-02-21T04:39:52.180Z,69.40
2023-02-21T04:42:18.968Z,69.42
2023-02-21T04:44:54.996Z,69.27
2023-02-21T04:47:26.439Z,69.19
2023-02-21T04:49:53.215Z,69.50
2023-02-21T04:52:20.088Z,69.69
2023-02-21T04:54:47.667Z,69.70
2023-02-21T04:57:16.327Z,70.00
2023-02-21T04:59:42.810Z,70.01
2023-02-21T05:02:09.761Z,70.13
2023-02-21T05:04:36.815Z,70.27
2023-02-21T05:07:04.598Z,70.43
2023-02-21T05:09:31.819Z,70.39
2023-02-21T05:11:58.660Z,70.61
2023-02-21T05:14:25.158Z,70.80
2023-02-21T05:16:51.782Z,70.69
2023-02-21T05:19:26.706Z,70.62
2023-02-21T05:21:58.519Z,70.53
2023-02-21T05:24:26.884Z,70.54
2023-02-21T05:26:54.108Z,70.56
2023-02-21T05:29:20.760Z,69.96
2023-02-21T05:31:48.248Z,69.99
2023-02-21T05:34:16.999Z,69.95
2023-02-21T05:36:43.716Z,69.91
2023-02-21T05:39:10.417Z,69.85
2023-02-21T05:41:37.395Z,69.37
2023-02-21T05:44:04.767Z,68.92
2023-02-21T05:46:33.977Z,68.72
2023-02-21T05:49:02.818Z,68.67
2023-02-21T05:51:38.987Z,68.38
2023-02-21T05:54:08.648Z,68.63
2023-02-21T05:56:39.809Z,68.07
2023-02-21T05:59:06.876Z,68.12
2023-02-21T06:01:33.516Z,67.36
2023-02-21T06:04:00.326Z,66.61
2023-02-21T06:06:27.145Z,66.69
2023-02-21T06:08:53.871Z,66.70
2023-02-21T06:11:27.582Z,66.43
2023-02-21T06:13:57.666Z,66.44
2023-02-21T06:16:24.579Z,66.70
2023-02-21T06:18:56.110Z,66.95
2023-02-21T06:21:23.461Z,66.51
2023-02-21T06:23:50.210Z,66.86
2023-02-21T06:26:18.192Z,66.69
2023-02-21T06:28:45.358Z,66.39
2023-02-21T06:31:12.532Z,67.13
2023-02-21T06:33:39.341Z,67.23
2023-02-21T06:36:08.587Z,67.50
2023-02-21T06:38:35.230Z,67.31
2023-02-21T06:41:06.183Z,67.82
2023-02-21T06:43:33.752Z,67.94
2023-02-21T06:46:00.489Z,67.89
2023-02-21T06:48:27.033Z,67.97
2023-02-21T06:50:53.731Z,68.30
2023-02-21T06:53:20.420Z,68.10
2023-02-21T06:55:47.002Z,68.04
2023-02-21T06:58:13.742Z,67.78
2023-02-21T07:00:40.581Z,67.94
2023-02-21T07:03:07.295Z,68.01
2023-02-21T07:05:36.423Z,67.87
2023-02-21T07:08:03.852Z,67.72
2023-02-21T07:10:30.476Z,67.72
2023-02-21T07:12:57.400Z,67.75
2023-02-21T07:15:24.274Z,67.24
2023-02-21T07:17:51.329Z,67.07
2023-02-21T07:20:18.399Z,67.11
2023-02-21T07:22:44.981Z,66.86
2023-02-21T07:25:16.722Z,67.14
2023-02-21T07:27:43.464Z,66.94
2023-02-21T07:30:11.637Z,67.06
2023-02-21T07:32:38.698Z,67.42
2023-02-21T07:35:06.236Z,67.84
2023-02-21T07:37:32.695Z,67.98
2023-02-21T07:39:59.316Z,68.24
2023-02-21T07:42:26.747Z,68.48
2023-02-21T07:44:57.368Z,68.69
2023-02-21T07:47:25.769Z,68.51
2023-02-21T07:49:53.720Z,68.62
2023-02-21T07:52:21.229Z,68.82
2023-02-21T07:54:49.153Z,69.16
2023-02-21T07:57:17.322Z,69.29
2023-02-21T07:59:44.243Z,69.23
2023-02-21T08:02:12.187Z,69.24
2023-02-21T08:04:40.033Z,69.58
2023-02-21T08:07:07.799Z,69.52
2023-02-21T08:09:35.546Z,69.31
2023-02-21T08:12:02.812Z,69.16
2023-02-21T08:14:29.330Z,69.46
2023-02-21T08:16:56.011Z,69.83
2023-02-21T08:19:22.941Z,69.78
2023-02-21T08:21:50.150Z,69.78
2023-02-21T08:24:17.637Z,69.44
2023-02-21T08:26:45.095Z,69.46
2023-02-21T08:29:13.284Z,69.65
2023-02-21T08:31:41.412Z,69.64
2023-02-21T08:34:08.781Z,69.83
2023-02-21T08:36:38.084Z,69.77
2023-02-21T08:39:06.262Z,69.43
2023-02-21T08:41:43.978Z,69.72
2023-02-21T08:44:13.008Z,69.77
2023-02-21T08:46:40.233Z,69.30
2023-02-21T08:49:08.176Z,69.35
2023-02-21T08:51:34.994Z,69.78
2023-02-21T08:54:02.773Z,70.07
2023-02-21T08:56:30.282Z,70.38
2023-02-21T08:58:57.256Z,70.49
2023-02-21T09:01:29.686Z,70.83
2023-02-21T09:03:56.528Z,70.79
2023-02-21T09:06:23.128Z,71.26
2023-02-21T09:08:50.282Z,71.25
2023-02-21T09:11:17.286Z,71.19
2023-02-21T09:13:43.957Z,72.03
2023-02-21T09:16:10.746Z,72.46
2023-02-21T09:18:37.625Z,72.67
2023-02-21T09:21:06.101Z,72.21
2023-02-21T09:23:32.811Z,72.15
2023-02-21T09:25:59.510Z,72.04
2023-02-21T09:28:26.151Z,72.11
2023-02-21T09:30:52.773Z,72.07
2023-02-21T09:33:19.545Z,72.06
2023-02-21T09:35:46.297Z,72.14
2023-02-21T09:38:13.075Z,71.87
2023-02-21T09:40:43.853Z,71.64
2023-02-21T09:43:18.892Z,71.99
2023-02-21T09:45:46.995Z,72.42
2023-02-21T09:48:16.776Z,72.99
2023-02-21T09:50:53.690Z,73.11
2023-02-21T09:53:26.118Z,73.51
2023-02-21T09:55:59.841Z,73.69
2023-02-21T09:58:26.552Z,73.73
2023-02-21T10:01:03.506Z,73.58
2023-02-21T10:03:32.932Z,73.09
2023-02-21T10:06:28.637Z,73.36
2023-02-21T10:09:18.262Z,74.17
2023-02-21T10:12:08.381Z,74.54
2023-02-21T10:15:06.664Z,75.13
2023-02-21T10:17:50.112Z,75.24
2023-02-21T10:20:37.861Z,75.49
2023-02-21T10:23:16.777Z,75.87
2023-02-21T10:25:58.728Z,75.23
2023-02-21T10:28:26.937Z,74.30
2023-02-21T10:30:59.683Z,73.76
2023-02-21T10:33:29.358Z,73.98
2023-02-21T10:35:56.143Z,73.63
2023-02-21T10:38:26.650Z,73.22
2023-02-21T10:41:01.867Z,73.09
2023-02-21T10:43:37.673Z,73.00
2023-02-21T10:46:31.108Z,73.07
2023-02-21T10:49:49.162Z,73.02
2023-02-21T10:52:20.721Z,72.44
2023-02-21T10:55:01.773Z,71.06
2023-02-21T10:57:31.456Z,70.59
2023-02-21T10:59:58.466Z,71.12
2023-02-21T11:02:30.437Z,71.24
2023-02-21T11:05:08.677Z,70.86
2023-02-21T11:07:35.372Z,70.57
2023-02-21T11:10:02.243Z,70.31
2023-02-21T11:12:32.440Z,70.40
2023-02-21T11:15:15.112Z,70.44
2023-02-21T11:17:43.947Z,70.26
2023-02-21T11:20:23.860Z,69.90
2023-02-21T11:22:51.888Z,69.49
2023-02-21T11:25:29.730Z,69.64
2023-02-21T11:28:04.634Z,69.82
2023-02-21T11:30:35.285Z,69.60
2023-02-21T11:33:04.296Z,69.60
2023-02-21T11:35:36.918Z,69.59
2023-02-21T11:38:09.224Z,69.50
2023-02-21T11:40:51.592Z,69.10
2023-02-21T11:43:24.323Z,69.26
2023-02-21T11:46:04.610Z,69.53
2023-02-21T11:48:37.790Z,69.21
2023-02-21T11:51:16.435Z,69.66
2023-02-21T11:53:43.852Z,69.97
2023-02-21T11:57:03.376Z,69.98
2023-02-21T11:59:45.473Z,69.61
2023-02-21T12:02:14.919Z,68.90
2023-02-21T12:04:55.988Z,68.81
2023-02-21T12:07:38.692Z,68.48
2023-02-21T12:10:26.568Z,67.61
2023-02-21T12:13:03.014Z,66.87
2023-02-21T12:15:54.398Z,67.20
2023-02-21T12:18:42.589Z,67.84
2023-02-21T12:21:12.537Z,66.96
2023-02-21T12:23:55.902Z,67.07
2023-02-21T12:26:54.008Z,67.34
2023-02-21T12:29:58.384Z,67.03
2023-02-21T12:32:50.586Z,67.60
2023-02-21T12:35:38.730Z,66.85
2023-02-21T12:38:27.941Z,66.78
2023-02-21T12:40:57.680Z,66.47
2023-02-21T12:43:59.700Z,66.77
2023-02-21T12:46:49.696Z,66.55
2023-02-21T12:49:45.345Z,65.97
2023-02-21T12:52:44.252Z,66.37
2023-02-21T12:55:22.078Z,66.67
2023-02-21T12:58:24.806Z,67.03
2023-02-21T13:01:01.758Z,67.02
2023-02-21T13:03:35.505Z,67.21
2023-02-21T13:06:23.142Z,67.66
2023-02-21T13:09:17.539Z,68.19
2023-02-21T13:12:00.442Z,68.35
2023-02-21T13:14:33.516Z,68.28
2023-02-21T13:17:00.238Z,68.14
2023-02-21T13:19:38.262Z,68.37
2023-02-21T13:22:25.526Z,68.35
2023-02-21T13:25:00.196Z,68.69
2023-02-21T13:27:49.424Z,69.05
2023-02-21T13:30:28.972Z,68.97
2023-02-21T13:32:58.457Z,68.37
2023-02-21T13:35:37.940Z,68.37
2023-02-21T13:38:07.915Z,68.77
2023-02-21T13:41:06.837Z,69.01
2023-02-21T13:43:36.105Z,69.10
2023-02-21T13:46:31.004Z,69.22
2023-02-21T13:49:35.458Z,68.62
2023-02-21T13:52:23.574Z,68.99
2023-02-21T13:55:13.661Z,69.24
2023-02-21T13:57:56.235Z,69.30
2023-02-21T14:00:29.210Z,69.52
2023-02-21T14:03:17.654Z,69.65
2023-02-21T14:05:50.383Z,69.83
2023-02-21T14:08:31.049Z,70.28
2023-02-21T14:11:14.446Z,70.86
2023-02-21T14:13:57.945Z,71.23
2023-02-21T14:17:02.098Z,71.18
2023-02-21T14:19:30.355Z,71.26
2023-02-21T14:22:16.679Z,71.20
2023-02-21T14:24:48.091Z,71.34
2023-02-21T14:27:17.598Z,71.27
2023-02-21T14:30:06.459Z,70.94
2023-02-21T14:32:51.087Z,70.87
2023-02-21T14:35:33.873Z,70.76
2023-02-21T14:38:22.600Z,70.35
2023-02-21T14:41:30.982Z,69.63
2023-02-21T14:44:55.693Z,69.70
2023-02-21T14:47:59.703Z,69.72
2023-02-21T14:51:11.266Z,69.65
2023-02-21T14:53:55.732Z,69.73
2023-02-21T14:56:41.347Z,69.54
2023-02-21T14:59:08.080Z,69.62
2023-02-21T15:01:43.728Z,69.59
2023-02-21T15:04:28.857Z,69.36
2023-02-21T15:07:08.188Z,69.36
2023-02-21T15:09:34.930Z,69.25
2023-02-21T15:12:09.489Z,69.36
2023-02-21T15:14:47.247Z,69.28
2023-02-21T15:17:20.685Z,69.47
2023-02-21T15:20:00.378Z,69.21
2023-02-21T15:22:27.312Z,69.26
2023-02-21T15:25:12.555Z,69.49
2023-02-21T15:27:49.808Z,69.58
2023-02-21T15:30:29.520Z,69.58
2023-02-21T15:33:01.958Z,69.59
2023-02-21T15:35:38.757Z,69.52
2023-02-21T15:38:22.768Z,69.94
2023-02-21T15:40:55.031Z,69.92
2023-02-21T15:43:26.996Z,70.22
2023-02-21T15:45:57.248Z,70.26
2023-02-21T15:48:25.322Z,70.28
2023-02-21T15:50:53.599Z,70.29
2023-02-21T15:53:41.230Z,70.32
2023-02-21T15:56:18.654Z,70.38
2023-02-21T15:59:07.451Z,70.50
2023-02-21T16:01:34.261Z,70.31
2023-02-21T16:04:43.807Z,70.32
2023-02-21T16:07:21.702Z,70.43
2023-02-21T16:09:59.145Z,70.44
2023-02-21T16:12:37.743Z,70.51
2023-02-21T16:15:18.423Z,70.61
2023-02-21T16:17:51.935Z,70.65
2023-02-21T16:20:36.347Z,70.68
2023-02-21T16:23:29.312Z,70.65
2023-02-21T16:26:16.268Z,70.82
2023-02-21T16:28:52.538Z,70.80
2023-02-21T16:31:30.117Z,70.84
2023-02-21T16:34:02.605Z,70.86
2023-02-21T16:36:44.406Z,71.11
2023-02-21T16:39:18.811Z,70.89
2023-02-21T16:42:05.337Z,71.04
2023-02-21T16:44:33.435Z,70.94
2023-02-21T16:47:00.137Z,71.19
2023-02-21T16:49:27.852Z,71.10
2023-02-21T16:51:54.607Z,71.16
2023-02-21T16:54:22.585Z,71.21
2023-02-21T16:56:56.978Z,71.01
2023-02-21T16:59:25.610Z,71.12
2023-02-21T17:02:06.909Z,71.09
2023-02-21T17:04:33.655Z,71.13
2023-02-21T17:07:04.501Z,71.16
2023-02-21T17:09:33.082Z,71.16
2023-02-21T17:12:01.028Z,71.26
2023-02-21T17:14:27.902Z,71.20
2023-02-21T17:16:54.634Z,71.15
2023-02-21T17:19:21.421Z,70.97
2023-02-21T17:21:48.904Z,71.08
2023-02-21T17:24:16.861Z,71.31
2023-02-21T17:27:53.479Z,71.22
2023-02-21T17:30:24.222Z,71.33
2023-02-21T17:32:51.451Z,71.28
2023-02-21T17:35:20.010Z,71.41
2023-02-21T17:37:49.847Z,71.51
2023-02-21T17:40:18.723Z,71.39
2023-02-21T17:42:45.441Z,71.53
2023-02-21T17:45:16.108Z,71.51
2023-02-21T17:47:46.307Z,71.61
2023-02-21T17:50:14.019Z,71.41
2023-02-21T17:52:42.048Z,71.72
2023-02-21T17:55:11.705Z,71.64
2023-02-21T17:57:40.108Z,71.65
2023-02-21T18:00:15.146Z,71.69
2023-02-21T18:02:42.391Z,71.90
2023-02-21T18:05:10.037Z,71.98
2023-02-21T18:07:36.822Z,71.87
2023-02-21T18:10:05.319Z,72.07
2023-02-21T18:12:33.866Z,72.10
2023-02-21T18:15:01.228Z,72.11
2023-02-21T18:17:28.475Z,71.95
2023-02-21T18:19:55.780Z,71.98
2023-02-21T18:22:23.480Z,72.03
2023-02-21T18:24:50.344Z,72.14
2023-02-21T18:27:17.234Z,72.20
2023-02-21T18:29:44.310Z,72.04
2023-02-21T18:32:11.371Z,72.11
2023-02-21T18:34:38.216Z,72.04
2023-02-21T18:37:07.671Z,72.14
2023-02-21T18:39:43.787Z,72.22
2023-02-21T18:42:10.728Z,72.14
2023-02-21T18:44:38.064Z,72.19
2023-02-21T18:47:04.934Z,72.25
2023-02-21T18:49:38.118Z,72.27
2023-02-21T18:52:06.806Z,72.21
2023-02-21T18:54:34.785Z,72.36
2023-02-21T18:57:01.907Z,72.38
2023-02-21T18:59:33.013Z,72.43
2023-02-21T19:02:10.146Z,72.38
2023-02-21T19:04:39.313Z,72.44
2023-02-21T19:07:13.461Z,72.30
2023-02-21T19:09:40.398Z,72.41
2023-02-21T19:12:11.233Z,72.44
2023-02-21T19:14:53.889Z,72.38
2023-02-21T19:17:26.870Z,72.45
2023-02-21T19:19:53.742Z,72.66
2023-02-21T19:22:20.600Z,72.53
2023-02-21T19:24:47.326Z,72.67
2023-02-21T19:27:24.343Z,72.68
2023-02-21T19:29:59.293Z,72.86
2023-02-21T19:32:30.813Z,72.78
2023-02-21T19:34:57.577Z,73.02
2023-02-21T19:37:24.351Z,73.05
2023-02-21T19:39:51.192Z,73.03
2023-02-21T19:42:18.118Z,73.29
2023-02-21T19:44:45.817Z,73.29
2023-02-21T19:47:16.292Z,73.30
2023-02-21T19:49:45.467Z,73.44
2023-02-21T19:52:12.287Z,73.45
2023-02-21T19:54:39.519Z,73.55
2023-02-21T19:57:07.441Z,73.61
2023-02-21T19:59:35.229Z,73.77
2023-02-21T20:02:03.377Z,73.58
2023-02-21T20:04:30.568Z,73.72
2023-02-21T20:06:58.327Z,73.57
2023-02-21T20:09:26.395Z,73.70
2023-02-21T20:11:53.512Z,73.64
2023-02-21T20:14:20.815Z,73.88
2023-02-21T20:16:47.888Z,73.92
2023-02-21T20:19:15.663Z,74.01
2023-02-21T20:21:53.204Z,74.01
2023-02-21T20:24:20.338Z,74.05
2023-02-21T20:26:51.938Z,74.18
2023-02-21T20:29:20.674Z,74.23
2023-02-21T20:31:47.868Z,74.35
2023-02-21T20:34:15.291Z,74.37
2023-02-21T20:36:44.723Z,74.32
2023-02-21T20:39:27.976Z,74.35
2023-02-21T20:41:57.535Z,74.24
2023-02-21T20:44:24.801Z,74.24
2023-02-21T20:46:51.791Z,74.30
2023-02-21T20:49:21.167Z,74.39
2023-02-21T20:51:48.873Z,74.27
2023-02-21T20:54:21.368Z,74.36
2023-02-21T20:56:51.326Z,74.34
2023-02-21T20:59:21.941Z,74.36
2023-02-21T21:01:49.290Z,74.38
2023-02-21T21:04:26.040Z,74.43
2023-02-21T21:06:56.045Z,74.48
2023-02-21T21:09:28.506Z,74.52
2023-02-21T21:12:01.694Z,74.56
2023-02-21T21:14:30.777Z,74.51
2023-02-21T21:16:59.299Z,74.44
2023-02-21T21:19:27.972Z,74.65
2023-02-21T21:21:58.374Z,74.61
2023-02-21T21:24:31.591Z,74.53
2023-02-21T21:27:07.601Z,74.68
2023-02-21T21:29:43.111Z,74.63
2023-02-21T21:32:12.694Z,74.76
2023-02-21T21:34:46.405Z,74.91
2023-02-21T21:37:18.940Z,74.91
2023-02-21T21:39:54.250Z,74.95
2023-02-21T21:42:24.615Z,74.94
2023-02-21T21:44:55.387Z,75.06
2023-02-21T21:47:24.311Z,75.09
2023-02-21T21:49:51.255Z,75.11
2023-02-21T21:52:20.256Z,75.17
2023-02-21T21:54:47.838Z,75.41
2023-02-21T21:57:18.003Z,75.26
2023-02-21T21:59:49.258Z,75.51
2023-02-21T22:02:16.601Z,75.96
2023-02-21T22:04:44.301Z,76.20
2023-02-21T22:07:13.124Z,76.63
2023-02-21T22:09:39.792Z,77.06
2023-02-21T22:12:07.953Z,77.27
2023-02-21T22:14:35.320Z,77.58
2023-02-21T22:17:04.747Z,77.75
2023-02-21T22:19:34.213Z,77.83
2023-02-21T22:22:07.372Z,78.26
2023-02-21T22:24:34.069Z,78.53
2023-02-21T22:27:02.031Z,78.45
2023-02-21T22:29:29.260Z,78.56
2023-02-21T22:31:56.055Z,78.74
2023-02-21T22:34:22.983Z,78.66
2023-02-21T22:36:52.135Z,78.88
2023-02-21T22:39:19.691Z,78.73
2023-02-21T22:41:48.858Z,78.79
2023-02-21T22:44:16.918Z,78.68
2023-02-21T22:46:46.948Z,78.87
2023-02-21T22:49:17.071Z,79.09
2023-02-21T22:51:44.052Z,79.10
2023-02-21T22:54:13.704Z,79.09
2023-02-21T22:56:50.215Z,79.24
2023-02-21T22:59:20.288Z,79.34
2023-02-21T23:01:47.163Z,78.75
2023-02-21T23:04:24.676Z,77.62
2023-02-21T23:06:56.766Z,77.28
2023-02-21T23:09:25.261Z,76.88
2023-02-21T23:11:55.013Z,76.86
2023-02-21T23:14:22.119Z,77.15
2023-02-21T23:16:49.432Z,77.07
2023-02-21T23:19:17.153Z,77.25
2023-02-21T23:21:46.570Z,77.37
2023-02-21T23:24:15.275Z,77.40
2023-02-21T23:26:45.474Z,77.49
2023-02-21T23:29:18.990Z,77.67
2023-02-21T23:31:47.194Z,78.04
2023-02-21T23:34:14.036Z,78.27
2023-02-21T23:36:40.870Z,78.43
2023-02-21T23:39:14.569Z,78.62
2023-02-21T23:41:43.961Z,78.90
2023-02-21T23:44:13.106Z,78.96
2023-02-21T23:46:41.982Z,78.92
2023-02-21T23:49:14.726Z,79.19
2023-02-21T23:51:43.168Z,79.09
2023-02-21T23:54:13.057Z,79.21
2023-02-21T23:56:39.901Z,79.26
2023-02-21T23:59:06.723Z,79.36
